CCGS Henry Larsen — CGHL — position and weather

sailwx.info

Track history (hours):
 
Tides and Currents Weather Stations Pressure Air Temp Water Temp Dewpoint Dewpoint Depression Visibility Wind Speed Wind Dir Waves Ship Positions

CCGS Henry Larsen (Canada)

Medium Gulf/River Icebreaker

Last reported at 2019-Apr-22 11:00 UTC. Time now 2019-Jun-19 20:52 UTC.
Position N 47°36' W 052°42'.
Warning: this ship's position is 58 days out of date.

Length 100.03 m; beam 19.82 m; draft 7.2 m.

Type: SAR. MMSI: 316013000.

Wind from 190 at 19 knots

Barometer 1020.7 mb
Air temperature 15.3 ° C
Dewpoint 12.2 ° C

Date/timePositionNaut miles runAvg speedWind from/ knotsBaromVisibWave heightAir tempDewpointWater temp
2019-Apr-22 11:00N 47°36' W 052°42'0 0.0 190 / 191020.7 15.312.2
2019-Apr-22 10:00N 47°36' W 052°42'0 0.0 180 / 191020.7 14.311.9
2019-Apr-22 09:00N 47°36' W 052°42'0 0.0 180 / 191021.0 13.811.2
2019-Apr-22 08:00N 47°36' W 052°42'0 0.0 180 / 201021.0 14.210.5
2019-Apr-22 07:00N 47°36' W 052°42'0 0.0 190 / 171021.7 15.310.7
2019-Apr-22 06:00N 47°36' W 052°42'0 0.0 180 / 161022.5 14.0 9.3
2019-Apr-22 05:00N 47°36' W 052°42'0 0.0 180 / 121023.4 14.2 9.3
2019-Apr-22 04:00N 47°36' W 052°42'0 0.0 180 / 121024.0 14.8 9.6
2019-Apr-22 03:00N 47°36' W 052°42'0 0.0 180 / 131024.7 14.510.8
2019-Apr-22 00:00N 47°36' W 052°42'0 0.0 170 / 91026.8 13.311.3
2019-Apr-21 23:00N 47°36' W 052°42'0 0.0 170 / 91027.0 12.610.8
2019-Apr-21 22:00N 47°36' W 052°42'0 0.0 180 / 91027.3 13.011.1
2019-Apr-21 21:00N 47°36' W 052°42'0 0.0 180 / 81027.6 11.810.1
2019-Apr-21 20:00N 47°36' W 052°42'0 0.0 180 / 91028.5 8.3 6.3
2019-Apr-21 19:00N 47°36' W 052°42'0 0.0 190 / 81029.4 6.8 4.9
2019-Apr-21 18:00N 47°36' W 052°42'0 0.0 190 / 71030.6 4.4 2.8
2019-Apr-21 17:00N 47°36' W 052°42'0 0.0 190 / 81031.5 4.3 2.7
2019-Apr-21 16:00N 47°36' W 052°42'0 0.0 180 / 61032.6 4.4 2.9
2019-Apr-21 15:00N 47°36' W 052°42'0 0.0 190 / 61032.9 4.4 2.8
2019-Apr-21 14:00N 47°36' W 052°42'0 0.0 200 / 41033.5 4.5 2.8
2019-Apr-21 12:00N 47°36' W 052°42'0 0.0 180 / 41032.9 5.3 3.1
2019-Apr-21 11:00N 47°36' W 052°42'0 0.0 320 / 31032.6 4.2 2.8
2019-Apr-21 10:00N 47°36' W 052°42'0 0.0 1032.0 3.0 2.5
2019-Apr-21 09:00N 47°36' W 052°42'0 0.0 180 / 21031.6 2.1 1.8
2019-Apr-21 08:00N 47°36' W 052°42'0 0.0 1031.1 1.7 1.4
2019-Apr-21 07:00N 47°36' W 052°42'0 0.0 1031.3 2.0 1.7
2019-Apr-21 06:00N 47°36' W 052°42'0 0.0 1030.0 2.3 1.9
2019-Apr-21 05:00N 47°36' W 052°42'0 0.0 020 / 41029.4 2.5 2.1
2019-Apr-21 04:00N 47°36' W 052°42'0 0.0 010 / 31028.5 2.5 2.2
2019-Apr-21 03:00N 47°36' W 052°42'0 0.0 060 / 11027.9 2.0 1.8
2019-Apr-21 02:00N 47°36' W 052°42'0 0.0 340 / 41026.9 1.9 1.7
2019-Apr-21 01:00N 47°36' W 052°42'0 0.0 340 / 71026.3 1.4 1.2
2019-Apr-21 00:00N 47°36' W 052°42'0 0.0 010 / 61025.6 2.1 1.9
2019-Apr-20 23:00N 47°36' W 052°42'0 0.0 360 / 71024.6 3.0 2.8
2019-Apr-20 22:00N 47°36' W 052°42'0 0.0 020 / 51024.0 3.8 3.5
2019-Apr-20 21:00N 47°36' W 052°42'0 0.0 340 / 21022.3 4.4 3.8
2019-Apr-20 20:00N 47°36' W 052°42'0 0.0 010 / 51022.3 5.0 4.2
2019-Apr-20 19:00N 47°36' W 052°42'0 0.0 070 / 51022.6 6.1 5.0
2019-Apr-20 18:00N 47°36' W 052°42'0 0.0 340 / 31022.4 5.4 4.5
2019-Apr-20 17:00N 47°36' W 052°42'0 0.0 070 / 51021.4 6.5 5.1
2019-Apr-20 16:00N 47°36' W 052°42'0 0.0 340 / 31020.6 5.1 3.9
2019-Apr-20 15:00N 47°36' W 052°42'0 0.0 190 / 31020.0 6.5 4.3
2019-Apr-20 14:00N 47°36' W 052°42'0 0.0 160 / 41019.5 6.5 5.2
2019-Apr-20 13:00N 47°36' W 052°42'0 0.0 180 / 71019.0 5.7 4.4
2019-Apr-20 12:00N 47°36' W 052°42'0 0.0 190 / 41017.9 6.0 4.8
2019-Apr-20 11:00N 47°36' W 052°42'0 0.0 170 / 41017.0 6.1 5.1
2019-Apr-20 10:00N 47°36' W 052°42'0 0.0 180 / 51016.5 5.8 4.9
2019-Apr-20 09:00N 47°36' W 052°42'0 0.0 180 / 71015.5 5.8 4.8
2019-Apr-20 08:00N 47°36' W 052°42'0 0.0 180 / 91014.3 6.0 5.1
2019-Apr-20 07:00N 47°36' W 052°42'0 0.0 190 / 81013.3 6.1 5.1
2019-Apr-20 05:00N 47°36' W 052°42'0 0.0 180 / 111012.4 6.0 4.4
2019-Apr-20 04:00N 47°36' W 052°42'0 0.0 180 / 111012.9 6.0 4.3
2019-Apr-20 03:00N 47°36' W 052°42'0 0.0 170 / 101014.2 5.0 3.8
2019-Apr-20 02:00N 47°36' W 052°42'0 0.0 170 / 81015.4 3.2 1.9
2019-Apr-20 01:00N 47°36' W 052°42'0 0.0 180 / 91016.7 2.1 0.6
2019-Apr-20 00:00N 47°36' W 052°42'0 0.0 180 / 131017.2 1.4-0.2
2019-Apr-19 23:00N 47°36' W 052°42'0 0.0 170 / 101017.7 1.0-0.5
2019-Apr-19 22:00N 47°36' W 052°42'0 0.0 170 / 111019.5 0.5-1.2
2019-Apr-19 21:00N 47°36' W 052°42'0 0.0 160 / 101020.6 0.5-1.0
2019-Apr-19 20:00N 47°36' W 052°42'0 0.0 170 / 81021.7 0.4-1.3
2019-Apr-19 19:00N 47°36' W 052°42'0 0.0 170 / 81023.3 2.4-3.8
2019-Apr-19 17:00N 47°36' W 052°42'0 0.0 180 / 131025.2 4.2-8.0
2019-Apr-19 16:00N 47°36' W 052°42'0 0.0 180 / 111025.4 5.2-6.7
2019-Apr-19 15:00N 47°36' W 052°42'0 0.0 180 / 111026.0 5.6-7.4
2019-Apr-19 14:00N 47°36' W 052°42'0 0.0 180 / 101026.2 5.2-5.8
2019-Apr-19 13:00N 47°36' W 052°42'0 0.0 180 / 91026.7 4.6-7.1
2019-Apr-19 12:00N 47°36' W 052°42'0 0.0 180 / 61027.0 3.4-4.4
2019-Apr-19 11:00N 47°36' W 052°42'0 0.0 180 / 91027.6 -0.1-4.0
2019-Apr-19 10:00N 47°36' W 052°42'0 0.0 180 / 41027.1 -2.2-5.0
2019-Apr-19 09:00N 47°36' W 052°42'0 0.0 180 / 51027.0 -3.9-6.2
2019-Apr-19 08:00N 47°36' W 052°42'0 0.0 170 / 41026.5 -4.1-6.7
2019-Apr-19 07:00N 47°36' W 052°42'0 0.0 170 / 31026.4 -3.9-6.6
2019-Apr-19 06:00N 47°36' W 052°42'0 0.0 160 / 31026.7 -3.6-6.7
2019-Apr-19 05:00N 47°36' W 052°42'0 0.0 160 / 21026.8 -3.1-6.3
2019-Apr-19 04:00N 47°36' W 052°42'0 0.0 180 / 41027.2 -3.4-6.6
2019-Apr-19 03:00N 47°36' W 052°42'0 0.0 190 / 41027.4 -2.5-6.4
2019-Apr-19 02:00N 47°36' W 052°42'0 0.0 160 / 11027.0 -1.4-6.2
2019-Apr-19 01:00N 47°36' W 052°42'0 0.0 340 / 41026.4 -0.7-6.4
2019-Apr-19 00:00N 47°36' W 052°42'0 0.0 330 / 41026.0 -0.2-6.3
2019-Apr-18 22:00N 47°36' W 052°42'0 0.0 270 / 61024.7 0.2-7.4
2019-Apr-18 21:00N 47°36' W 052°42'0 0.0 290 / 61023.3 0.4-6.4
2019-Apr-18 20:00N 47°36' W 052°42'0 0.0 300 / 91022.4 0.5-5.8
2019-Apr-18 19:00N 47°36' W 052°42'0 0.0 290 / 51021.5 0.9-5.5
2019-Apr-18 18:00N 47°36' W 052°42'0 0.0 290 / 91020.7 0.6-5.5
2019-Apr-18 17:00N 47°36' W 052°42'0 0.0 290 / 91020.2 0.5-5.1
2019-Apr-18 16:00N 47°36' W 052°42'0 0.0 290 / 101019.3 0.4-5.1
2019-Apr-18 15:00N 47°36' W 052°42'0 0.0 300 / 81018.4 0.4-5.1
2019-Apr-18 14:00N 47°36' W 052°42'0 0.0 270 / 71017.8 0.2-4.8
2019-Apr-18 13:00N 47°36' W 052°42'0 0.0 300 / 81016.7 -0.0-4.4
2019-Apr-18 12:00N 47°36' W 052°42'0 0.0 310 / 81015.7 -0.3-4.3
2019-Apr-18 10:00N 47°36' W 052°42'0 0.0 260 / 71013.4 -0.5-4.4
2019-Apr-18 07:00N 47°36' W 052°42'0 0.0 270 / 61009.5 -0.5-4.4
2019-Apr-18 06:00N 47°36' W 052°42'0 0.0 310 / 81008.3 -0.3-4.4
2019-Apr-18 05:00N 47°36' W 052°42'0 0.0 300 / 111007.6 -0.2-4.3
2019-Apr-18 04:00N 47°36' W 052°42'0 0.0 300 / 111006.8 -0.1-4.1
2019-Apr-18 03:00N 47°36' W 052°42'0 0.0 310 / 111005.9 -0.2-3.6
2019-Apr-18 02:00N 47°36' W 052°42'0 0.0 310 / 101004.8 -0.1-3.4
2019-Apr-18 01:00N 47°36' W 052°42'0 0.0 310 / 111003.4 -0.0-3.5
2019-Apr-18 00:00N 47°36' W 052°42'0 0.0 310 / 131001.7 0.2-3.2
2019-Apr-17 23:00N 47°36' W 052°42'0 0.0 320 / 14999.5 0.2-2.8
2019-Apr-17 22:00N 47°36' W 052°42'0 0.0 330 / 17997.5 0.4-2.3
2019-Apr-17 21:00N 47°36' W 052°42'0 0.0 320 / 20995.2 0.7-2.0
2019-Apr-17 20:00N 47°36' W 052°42'0 0.0 330 / 21993.1 0.9-1.5
2019-Apr-17 19:00N 47°36' W 052°42'0 0.0 330 / 20991.0 1.4-1.3
2019-Apr-17 18:00N 47°36' W 052°42'0 0.0 330 / 20989.1 1.9-1.3
2019-Apr-17 17:00N 47°36' W 052°42'0 0.0 320 / 21987.4 1.9-1.2
2019-Apr-17 15:00N 47°36' W 052°42'0 0.0 320 / 17984.7 1.7-1.0
2019-Apr-17 14:00N 47°36' W 052°42'0 0.0 300 / 9983.3 1.5-0.8
2019-Apr-17 13:00N 47°36' W 052°42'0 0.0 300 / 5982.3 1.2-0.7
2019-Apr-17 10:00N 47°36' W 052°42'0 0.0 180 / 11979.6 0.6-1.3
2019-Apr-17 09:00N 47°36' W 052°42'0 0.0 190 / 11979.2 0.7-1.7
2019-Apr-17 08:00N 47°36' W 052°42'0 0.0 180 / 10978.8 0.6-1.4
2019-Apr-17 07:00N 47°36' W 052°42'0 0.0 180 / 10978.9 0.9-1.1
2019-Apr-17 06:00N 47°36' W 052°42'0 0.0 180 / 8978.9 1.0-0.7
2019-Apr-17 05:00N 47°36' W 052°42'0 0.0 170 / 6979.5 1.6-0.7
2019-Apr-17 03:00N 47°36' W 052°42'0 0.0 160 / 7980.3 2.1-0.2
2019-Apr-17 02:00N 47°36' W 052°42'0 0.0 180 / 10980.3 1.8-0.1
2019-Apr-17 01:00N 47°36' W 052°42'0 0.0 180 / 9981.4 2.1-0.1
2019-Apr-17 00:00N 47°36' W 052°42'0 0.0 170 / 9982.1 2.5 0.6
2019-Apr-16 23:00N 47°36' W 052°42'0 0.0 180 / 7982.8 2.8 1.1
2019-Apr-16 22:00N 47°36' W 052°42'0 0.0 180 / 9983.1 3.6 1.8
2019-Apr-16 21:00N 47°36' W 052°42'0 0.0 170 / 10983.5 5.5 3.0
2019-Apr-16 20:00N 47°36' W 052°42'0 0.0 180 / 10983.9 6.0 4.0
2019-Apr-16 19:00N 47°36' W 052°42'0 0.0 170 / 7984.7 7.3 5.2
2019-Apr-16 18:00N 47°36' W 052°42'0 0.0 180 / 9985.6 8.4 6.3
2019-Apr-16 17:00N 47°36' W 052°42'0 0.0 180 / 12986.2 9.4 7.4
2019-Apr-16 16:00N 47°36' W 052°42'0 0.0 360 / 3987.7 4.5 4.1
2019-Apr-16 15:00N 47°36' W 052°42'0 0.0 330 / 2989.0 2.9 2.6
2019-Apr-16 14:00N 47°36' W 052°42'0 0.0 340 / 2990.2 2.1 1.8
2019-Apr-16 13:00N 47°36' W 052°42'0 0.0 991.2 1.6 1.3
2019-Apr-16 12:00N 47°36' W 052°42'0 0.0 330 / 2992.3 1.1 0.7
2019-Apr-16 11:00N 47°36' W 052°42'0 0.0 992.9 0.8 0.4
2019-Apr-16 10:00N 47°36' W 052°42'0 0.0 310 / 2993.6 0.4-0.0
2019-Apr-16 08:00N 47°36' W 052°42'0 0.0 270 / 3997.3 -0.0-0.7
2019-Apr-16 07:00N 47°36' W 052°42'0 0.0 200 / 1999.6 0.2-0.7
2019-Apr-16 06:00N 47°36' W 052°42'0 0.0 050 / 41000.9 -0.1-0.9
2019-Apr-16 05:00N 47°36' W 052°42'0 0.0 030 / 41003.8 -0.4-1.2
2019-Apr-16 04:00N 47°36' W 052°42'0 0.0 080 / 11005.8 -0.4-1.3
2019-Apr-16 03:00N 47°36' W 052°42'0 0.0 020 / 11007.5 -0.4-1.4
2019-Apr-16 02:00N 47°36' W 052°42'0 0.0 040 / 31008.5 -0.3-1.4
2019-Apr-16 01:00N 47°36' W 052°42'0 0.0 190 / 11010.3 -0.2-1.8
2019-Apr-16 00:00N 47°36' W 052°42'0 0.0 130 / 11012.4 -0.0-2.2
2019-Apr-15 23:00N 47°36' W 052°42'0 0.0 180 / 21013.3 0.4-3.3
2019-Apr-15 22:00N 47°36' W 052°42'0 0.0 160 / 21013.7 0.6-3.5
2019-Apr-15 20:00N 47°36' W 052°42'0 0.0 190 / 21014.4 1.5-5.1
2019-Apr-15 19:00N 47°36' W 052°42'0 0.0 180 / 51015.0 2.5-6.5
2019-Apr-15 18:00N 47°36' W 052°42'0 0.0 180 / 51015.4 2.8-7.0
2019-Apr-15 17:00N 47°36' W 052°42'0 0.0 170 / 41015.4 4.5-8.1
2019-Apr-15 16:00N 47°36' W 052°42'0 0.0 150 / 31015.6 5.0-6.0
2019-Apr-15 15:00N 47°36' W 052°42'0 0.0 120 / 21015.2 5.4-5.1
2019-Apr-15 13:00N 47°36' W 052°42'0 0.0 350 / 31016.5 3.0-2.2
2019-Apr-15 10:00N 47°36' W 052°42'0 0.0 160 / 21015.0 0.9-2.4
2019-Apr-15 09:00N 47°36' W 052°42'0 0.0 170 / 21014.7 -0.6-3.3
2019-Apr-15 08:00N 47°36' W 052°42'0 0.0 1013.5 -0.1-2.9
2019-Apr-15 07:00N 47°36' W 052°42'0 0.0 340 / 11012.9 0.3-2.9
2019-Apr-15 06:00N 47°36' W 052°42'0 0.0 240 / 21012.2 0.7-2.6
2019-Apr-15 05:00N 47°36' W 052°42'0 0.0 340 / 41011.4 1.8-2.5
2019-Apr-15 04:00N 47°36' W 052°42'0 0.0 290 / 21011.1 2.2-2.7
2019-Apr-15 03:00N 47°36' W 052°42'0 0.0 210 / 11010.4 2.6-2.1
2019-Apr-15 01:00N 47°36' W 052°42'0 0.0 280 / 51008.7 2.9-2.3
2019-Apr-15 00:00N 47°36' W 052°42'0 0.0 310 / 41007.2 3.4-1.6
2019-Apr-14 23:00N 47°36' W 052°42'0 0.0 320 / 81005.5 3.5-0.8
2019-Apr-14 22:00N 47°36' W 052°42'0 0.0 340 / 71003.5 5.9 0.1
2019-Apr-14 21:00N 47°36' W 052°42'0 0.0 250 / 31002.1 8.5-1.0
2019-Apr-14 20:00N 47°36' W 052°42'0 0.0 220 / 51001.1 8.6-0.5
2019-Apr-14 19:00N 47°36' W 052°42'0 0.0 210 / 91000.0 9.4 0.2
2019-Apr-14 18:00N 47°36' W 052°42'0 0.0 210 / 9999.2 10.3 1.7
2019-Apr-14 17:00N 47°36' W 052°42'0 0.0 210 / 6999.7 10.0 3.3
2019-Apr-14 16:00N 47°36' W 052°42'0 0.0 220 / 7999.9 8.1 3.2
2019-Apr-14 15:00N 47°36' W 052°42'0 0.0 220 / 9999.4 7.1 3.1
2019-Apr-14 13:00N 47°36' W 052°42'0 0.0 210 / 71000.3 6.0 4.2
2019-Apr-14 12:00N 47°36' W 052°42'0 0.0 210 / 51000.4 7.0 4.6
2019-Apr-14 11:00N 47°36' W 052°42'0 0.0 200 / 61001.1 5.5 3.4
2019-Apr-14 10:00N 47°36' W 052°42'0 0.0 200 / 61002.4 4.2 2.8
2019-Apr-14 09:00N 47°36' W 052°42'0 0.0 190 / 31003.0 4.0 2.4
2019-Apr-14 08:00N 47°36' W 052°42'0 0.0 200 / 31003.0 3.6 1.3
2019-Apr-14 07:00N 47°36' W 052°42'0 0.0 240 / 11004.0 3.1 0.8
2019-Apr-14 06:00N 47°36' W 052°42'0 0.0 200 / 61005.4 2.6 0.6
2019-Apr-14 05:00N 47°36' W 052°42'0 0.0 200 / 51007.3 2.4-0.1
2019-Apr-14 04:00N 47°36' W 052°42'0 0.0 200 / 61008.6 2.3-0.6
2019-Apr-14 03:00N 47°36' W 052°42'0 0.0 200 / 71009.9 2.5-1.3
2019-Apr-14 02:00N 47°36' W 052°42'0 0.0 200 / 81011.3 2.7-3.4
2019-Apr-14 01:00N 47°36' W 052°42'0 0.0 200 / 51011.8 3.3-7.0
2019-Apr-14 00:00N 47°36' W 052°42'0 0.0 200 / 61013.0 4.1-6.9
2019-Apr-13 23:00N 47°36' W 052°42'0 0.0 210 / 91014.5 4.5-6.8
2019-Apr-13 22:00N 47°36' W 052°42'0 0.0 210 / 71014.3 5.2-4.9
2019-Apr-13 21:00N 47°36' W 052°42'0 0.0 210 / 81015.0 5.7-7.1
2019-Apr-13 20:00N 47°36' W 052°42'0 0.0 210 / 91015.3 6.8-11.4
2019-Apr-13 19:00N 47°36' W 052°42'0 0.0 210 / 61016.3 7.5-8.0
2019-Apr-13 18:00N 47°36' W 052°42'0 0.0 210 / 71016.9 7.6-8.5
2019-Apr-13 17:00N 47°36' W 052°42'0 0.0 210 / 51017.7 7.5-9.2
2019-Apr-13 16:00N 47°36' W 052°42'0 0.0 210 / 51018.1 6.8-9.4
2019-Apr-13 15:00N 47°36' W 052°42'0 0.0 220 / 51018.7 5.8-9.2
2019-Apr-13 14:00N 47°36' W 052°42'0 0.0 230 / 41019.3 5.2-8.2
2019-Apr-13 13:00N 47°36' W 052°42'0 0.0 200 / 91019.9 2.3-8.2
2019-Apr-13 12:00N 47°36' W 052°42'0 0.0 190 / 101020.1 0.8-7.3
2019-Apr-13 11:00N 47°36' W 052°42'0 0.0 190 / 81019.9 -0.0-6.5
2019-Apr-13 10:00N 47°36' W 052°42'0 0.0 170 / 51019.3 -0.6-6.1
2019-Apr-13 09:00N 47°36' W 052°42'0 0.0 180 / 41018.1 -2.0-6.9
2019-Apr-13 08:00N 47°36' W 052°42'0 0.0 170 / 51018.2 -1.6-6.7
2019-Apr-13 06:00N 47°36' W 052°42'0 0.0 160 / 41017.4 -0.9-6.3
2019-Apr-13 05:00N 47°36' W 052°42'0 0.0 180 / 51017.4 -1.2-7.2
2019-Apr-13 04:00N 47°36' W 052°42'0 0.0 170 / 41017.3 -1.6-6.1
2019-Apr-13 03:00N 47°36' W 052°42'0 0.0 170 / 31017.0 -1.6-5.3
2019-Apr-13 02:00N 47°36' W 052°42'0 0.0 170 / 41017.0 -1.2-5.5
2019-Apr-13 01:00N 47°36' W 052°42'0 0.0 170 / 21017.2 -0.9-5.1
2019-Apr-13 00:00N 47°36' W 052°42'0 0.0 010 / 31016.3 -1.3-5.0
2019-Apr-12 23:00N 47°36' W 052°42'0 0.0 360 / 51015.4 -0.9-4.6
2019-Apr-12 22:00N 47°36' W 052°42'0 0.0 010 / 61014.5 0.4-4.8
2019-Apr-12 21:00N 47°36' W 052°42'0 0.0 010 / 71013.9 2.2-5.0
2019-Apr-12 20:00N 47°36' W 052°42'0 0.0 360 / 91013.4 2.0-4.7
2019-Apr-12 19:00N 47°36' W 052°42'0 0.0 350 / 41012.6 2.4-3.5
2019-Apr-12 18:00N 47°36' W 052°42'0 0.0 210 / 91012.4 5.1-4.3
2019-Apr-12 17:00N 47°36' W 052°42'0 0.0 210 / 101012.5 4.8-3.9
2019-Apr-12 16:00N 47°36' W 052°42'0 0.0 210 / 81012.9 4.0-3.9
2019-Apr-12 15:00N 47°36' W 052°42'0 0.0 210 / 71013.3 3.6-3.7
2019-Apr-12 14:00N 47°36' W 052°42'0 0.0 220 / 71013.7 3.3-3.5
2019-Apr-12 13:00N 47°36' W 052°42'0 0.0 220 / 81013.8 2.1-3.6
2019-Apr-12 12:00N 47°36' W 052°42'0 0.0 210 / 51014.0 1.3-3.1
2019-Apr-12 11:00N 47°36' W 052°42'   220 / 51014.1 0.6-2.9
Track history (hours):
 
Tides and Currents Weather Stations Pressure Air Temp Water Temp Dewpoint Dewpoint Depression Visibility Wind Speed Wind Dir Waves Ship Positions

CCGS Henry Larsen (Canada)

Medium Gulf/River Icebreaker

Last reported at 2019-Apr-22 11:00 UTC. Time now 2019-Jun-19 20:52 UTC.
Position N 47°36' W 052°42'.
Warning: this ship's position is 58 days out of date.

Length 100.03 m; beam 19.82 m; draft 7.2 m.

Type: SAR. MMSI: 316013000.

Wind from 190 at 19 knots

Barometer 1020.7 mb
Air temperature 15.3 ° C
Dewpoint 12.2 ° C

Date/timePositionNaut miles runAvg speedWind from/ knotsBaromVisibWave heightAir tempDewpointWater temp
2019-Apr-22 11:00N 47°36' W 052°42'0 0.0 190 / 191020.7 15.312.2
2019-Apr-22 10:00N 47°36' W 052°42'0 0.0 180 / 191020.7 14.311.9
2019-Apr-22 09:00N 47°36' W 052°42'0 0.0 180 / 191021.0 13.811.2
2019-Apr-22 08:00N 47°36' W 052°42'0 0.0 180 / 201021.0 14.210.5
2019-Apr-22 07:00N 47°36' W 052°42'0 0.0 190 / 171021.7 15.310.7
2019-Apr-22 06:00N 47°36' W 052°42'0 0.0 180 / 161022.5 14.0 9.3
2019-Apr-22 05:00N 47°36' W 052°42'0 0.0 180 / 121023.4 14.2 9.3
2019-Apr-22 04:00N 47°36' W 052°42'0 0.0 180 / 121024.0 14.8 9.6
2019-Apr-22 03:00N 47°36' W 052°42'0 0.0 180 / 131024.7 14.510.8
2019-Apr-22 00:00N 47°36' W 052°42'0 0.0 170 / 91026.8 13.311.3
2019-Apr-21 23:00N 47°36' W 052°42'0 0.0 170 / 91027.0 12.610.8
2019-Apr-21 22:00N 47°36' W 052°42'0 0.0 180 / 91027.3 13.011.1
2019-Apr-21 21:00N 47°36' W 052°42'0 0.0 180 / 81027.6 11.810.1
2019-Apr-21 20:00N 47°36' W 052°42'0 0.0 180 / 91028.5 8.3 6.3
2019-Apr-21 19:00N 47°36' W 052°42'0 0.0 190 / 81029.4 6.8 4.9
2019-Apr-21 18:00N 47°36' W 052°42'0 0.0 190 / 71030.6 4.4 2.8
2019-Apr-21 17:00N 47°36' W 052°42'0 0.0 190 / 81031.5 4.3 2.7
2019-Apr-21 16:00N 47°36' W 052°42'0 0.0 180 / 61032.6 4.4 2.9
2019-Apr-21 15:00N 47°36' W 052°42'0 0.0 190 / 61032.9 4.4 2.8
2019-Apr-21 14:00N 47°36' W 052°42'0 0.0 200 / 41033.5 4.5 2.8
2019-Apr-21 12:00N 47°36' W 052°42'0 0.0 180 / 41032.9 5.3 3.1
2019-Apr-21 11:00N 47°36' W 052°42'0 0.0 320 / 31032.6 4.2 2.8
2019-Apr-21 10:00N 47°36' W 052°42'0 0.0 1032.0 3.0 2.5
2019-Apr-21 09:00N 47°36' W 052°42'0 0.0 180 / 21031.6 2.1 1.8
2019-Apr-21 08:00N 47°36' W 052°42'0 0.0 1031.1 1.7 1.4
2019-Apr-21 07:00N 47°36' W 052°42'0 0.0 1031.3 2.0 1.7
2019-Apr-21 06:00N 47°36' W 052°42'0 0.0 1030.0 2.3 1.9
2019-Apr-21 05:00N 47°36' W 052°42'0 0.0 020 / 41029.4 2.5 2.1
2019-Apr-21 04:00N 47°36' W 052°42'0 0.0 010 / 31028.5 2.5 2.2
2019-Apr-21 03:00N 47°36' W 052°42'0 0.0 060 / 11027.9 2.0 1.8
2019-Apr-21 02:00N 47°36' W 052°42'0 0.0 340 / 41026.9 1.9 1.7
2019-Apr-21 01:00N 47°36' W 052°42'0 0.0 340 / 71026.3 1.4 1.2
2019-Apr-21 00:00N 47°36' W 052°42'0 0.0 010 / 61025.6 2.1 1.9
2019-Apr-20 23:00N 47°36' W 052°42'0 0.0 360 / 71024.6 3.0 2.8
2019-Apr-20 22:00N 47°36' W 052°42'0 0.0 020 / 51024.0 3.8 3.5
2019-Apr-20 21:00N 47°36' W 052°42'0 0.0 340 / 21022.3 4.4 3.8
2019-Apr-20 20:00N 47°36' W 052°42'0 0.0 010 / 51022.3 5.0 4.2
2019-Apr-20 19:00N 47°36' W 052°42'0 0.0 070 / 51022.6 6.1 5.0
2019-Apr-20 18:00N 47°36' W 052°42'0 0.0 340 / 31022.4 5.4 4.5
2019-Apr-20 17:00N 47°36' W 052°42'0 0.0 070 / 51021.4 6.5 5.1
2019-Apr-20 16:00N 47°36' W 052°42'0 0.0 340 / 31020.6 5.1 3.9
2019-Apr-20 15:00N 47°36' W 052°42'0 0.0 190 / 31020.0 6.5 4.3
2019-Apr-20 14:00N 47°36' W 052°42'0 0.0 160 / 41019.5 6.5 5.2
2019-Apr-20 13:00N 47°36' W 052°42'0 0.0 180 / 71019.0 5.7 4.4
2019-Apr-20 12:00N 47°36' W 052°42'0 0.0 190 / 41017.9 6.0 4.8
2019-Apr-20 11:00N 47°36' W 052°42'0 0.0 170 / 41017.0 6.1 5.1
2019-Apr-20 10:00N 47°36' W 052°42'0 0.0 180 / 51016.5 5.8 4.9
2019-Apr-20 09:00N 47°36' W 052°42'0 0.0 180 / 71015.5 5.8 4.8
2019-Apr-20 08:00N 47°36' W 052°42'0 0.0 180 / 91014.3 6.0 5.1
2019-Apr-20 07:00N 47°36' W 052°42'0 0.0 190 / 81013.3 6.1 5.1
2019-Apr-20 05:00N 47°36' W 052°42'0 0.0 180 / 111012.4 6.0 4.4
2019-Apr-20 04:00N 47°36' W 052°42'0 0.0 180 / 111012.9 6.0 4.3
2019-Apr-20 03:00N 47°36' W 052°42'0 0.0 170 / 101014.2 5.0 3.8
2019-Apr-20 02:00N 47°36' W 052°42'0 0.0 170 / 81015.4 3.2 1.9
2019-Apr-20 01:00N 47°36' W 052°42'0 0.0 180 / 91016.7 2.1 0.6
2019-Apr-20 00:00N 47°36' W 052°42'0 0.0 180 / 131017.2 1.4-0.2
2019-Apr-19 23:00N 47°36' W 052°42'0 0.0 170 / 101017.7 1.0-0.5
2019-Apr-19 22:00N 47°36' W 052°42'0 0.0 170 / 111019.5 0.5-1.2
2019-Apr-19 21:00N 47°36' W 052°42'0 0.0 160 / 101020.6 0.5-1.0
2019-Apr-19 20:00N 47°36' W 052°42'0 0.0 170 / 81021.7 0.4-1.3
2019-Apr-19 19:00N 47°36' W 052°42'0 0.0 170 / 81023.3 2.4-3.8
2019-Apr-19 17:00N 47°36' W 052°42'0 0.0 180 / 131025.2 4.2-8.0
2019-Apr-19 16:00N 47°36' W 052°42'0 0.0 180 / 111025.4 5.2-6.7
2019-Apr-19 15:00N 47°36' W 052°42'0 0.0 180 / 111026.0 5.6-7.4
2019-Apr-19 14:00N 47°36' W 052°42'0 0.0 180 / 101026.2 5.2-5.8
2019-Apr-19 13:00N 47°36' W 052°42'0 0.0 180 / 91026.7 4.6-7.1
2019-Apr-19 12:00N 47°36' W 052°42'0 0.0 180 / 61027.0 3.4-4.4
2019-Apr-19 11:00N 47°36' W 052°42'0 0.0 180 / 91027.6 -0.1-4.0
2019-Apr-19 10:00N 47°36' W 052°42'0 0.0 180 / 41027.1 -2.2-5.0
2019-Apr-19 09:00N 47°36' W 052°42'0 0.0 180 / 51027.0 -3.9-6.2
2019-Apr-19 08:00N 47°36' W 052°42'0 0.0 170 / 41026.5 -4.1-6.7
2019-Apr-19 07:00N 47°36' W 052°42'0 0.0 170 / 31026.4 -3.9-6.6
2019-Apr-19 06:00N 47°36' W 052°42'0 0.0 160 / 31026.7 -3.6-6.7
2019-Apr-19 05:00N 47°36' W 052°42'0 0.0 160 / 21026.8 -3.1-6.3
2019-Apr-19 04:00N 47°36' W 052°42'0 0.0 180 / 41027.2 -3.4-6.6
2019-Apr-19 03:00N 47°36' W 052°42'0 0.0 190 / 41027.4 -2.5-6.4
2019-Apr-19 02:00N 47°36' W 052°42'0 0.0 160 / 11027.0 -1.4-6.2
2019-Apr-19 01:00N 47°36' W 052°42'0 0.0 340 / 41026.4 -0.7-6.4
2019-Apr-19 00:00N 47°36' W 052°42'0 0.0 330 / 41026.0 -0.2-6.3
2019-Apr-18 22:00N 47°36' W 052°42'0 0.0 270 / 61024.7 0.2-7.4
2019-Apr-18 21:00N 47°36' W 052°42'0 0.0 290 / 61023.3 0.4-6.4
2019-Apr-18 20:00N 47°36' W 052°42'0 0.0 300 / 91022.4 0.5-5.8
2019-Apr-18 19:00N 47°36' W 052°42'0 0.0 290 / 51021.5 0.9-5.5
2019-Apr-18 18:00N 47°36' W 052°42'0 0.0 290 / 91020.7 0.6-5.5
2019-Apr-18 17:00N 47°36' W 052°42'0 0.0 290 / 91020.2 0.5-5.1
2019-Apr-18 16:00N 47°36' W 052°42'0 0.0 290 / 101019.3 0.4-5.1
2019-Apr-18 15:00N 47°36' W 052°42'0 0.0 300 / 81018.4 0.4-5.1
2019-Apr-18 14:00N 47°36' W 052°42'0 0.0 270 / 71017.8 0.2-4.8
2019-Apr-18 13:00N 47°36' W 052°42'0 0.0 300 / 81016.7 -0.0-4.4
2019-Apr-18 12:00N 47°36' W 052°42'0 0.0 310 / 81015.7 -0.3-4.3
2019-Apr-18 10:00N 47°36' W 052°42'0 0.0 260 / 71013.4 -0.5-4.4
2019-Apr-18 07:00N 47°36' W 052°42'0 0.0 270 / 61009.5 -0.5-4.4
2019-Apr-18 06:00N 47°36' W 052°42'0 0.0 310 / 81008.3 -0.3-4.4
2019-Apr-18 05:00N 47°36' W 052°42'0 0.0 300 / 111007.6 -0.2-4.3
2019-Apr-18 04:00N 47°36' W 052°42'0 0.0 300 / 111006.8 -0.1-4.1
2019-Apr-18 03:00N 47°36' W 052°42'0 0.0 310 / 111005.9 -0.2-3.6
2019-Apr-18 02:00N 47°36' W 052°42'0 0.0 310 / 101004.8 -0.1-3.4
2019-Apr-18 01:00N 47°36' W 052°42'0 0.0 310 / 111003.4 -0.0-3.5
2019-Apr-18 00:00N 47°36' W 052°42'0 0.0 310 / 131001.7 0.2-3.2
2019-Apr-17 23:00N 47°36' W 052°42'0 0.0 320 / 14999.5 0.2-2.8
2019-Apr-17 22:00N 47°36' W 052°42'0 0.0 330 / 17997.5 0.4-2.3
2019-Apr-17 21:00N 47°36' W 052°42'0 0.0 320 / 20995.2 0.7-2.0
2019-Apr-17 20:00N 47°36' W 052°42'0 0.0 330 / 21993.1 0.9-1.5
2019-Apr-17 19:00N 47°36' W 052°42'0 0.0 330 / 20991.0 1.4-1.3
2019-Apr-17 18:00N 47°36' W 052°42'0 0.0 330 / 20989.1 1.9-1.3
2019-Apr-17 17:00N 47°36' W 052°42'0 0.0 320 / 21987.4 1.9-1.2
2019-Apr-17 15:00N 47°36' W 052°42'0 0.0 320 / 17984.7 1.7-1.0
2019-Apr-17 14:00N 47°36' W 052°42'0 0.0 300 / 9983.3 1.5-0.8
2019-Apr-17 13:00N 47°36' W 052°42'0 0.0 300 / 5982.3 1.2-0.7
2019-Apr-17 10:00N 47°36' W 052°42'0 0.0 180 / 11979.6 0.6-1.3
2019-Apr-17 09:00N 47°36' W 052°42'0 0.0 190 / 11979.2 0.7-1.7
2019-Apr-17 08:00N 47°36' W 052°42'0 0.0 180 / 10978.8 0.6-1.4
2019-Apr-17 07:00N 47°36' W 052°42'0 0.0 180 / 10978.9 0.9-1.1
2019-Apr-17 06:00N 47°36' W 052°42'0 0.0 180 / 8978.9 1.0-0.7
2019-Apr-17 05:00N 47°36' W 052°42'0 0.0 170 / 6979.5 1.6-0.7
2019-Apr-17 03:00N 47°36' W 052°42'0 0.0 160 / 7980.3 2.1-0.2
2019-Apr-17 02:00N 47°36' W 052°42'0 0.0 180 / 10980.3 1.8-0.1
2019-Apr-17 01:00N 47°36' W 052°42'0 0.0 180 / 9981.4 2.1-0.1
2019-Apr-17 00:00N 47°36' W 052°42'0 0.0 170 / 9982.1 2.5 0.6
2019-Apr-16 23:00N 47°36' W 052°42'0 0.0 180 / 7982.8 2.8 1.1
2019-Apr-16 22:00N 47°36' W 052°42'0 0.0 180 / 9983.1 3.6 1.8
2019-Apr-16 21:00N 47°36' W 052°42'0 0.0 170 / 10983.5 5.5 3.0
2019-Apr-16 20:00N 47°36' W 052°42'0 0.0 180 / 10983.9 6.0 4.0
2019-Apr-16 19:00N 47°36' W 052°42'0 0.0 170 / 7984.7 7.3 5.2
2019-Apr-16 18:00N 47°36' W 052°42'0 0.0 180 / 9985.6 8.4 6.3
2019-Apr-16 17:00N 47°36' W 052°42'0 0.0 180 / 12986.2 9.4 7.4
2019-Apr-16 16:00N 47°36' W 052°42'0 0.0 360 / 3987.7 4.5 4.1
2019-Apr-16 15:00N 47°36' W 052°42'0 0.0 330 / 2989.0 2.9 2.6
2019-Apr-16 14:00N 47°36' W 052°42'0 0.0 340 / 2990.2 2.1 1.8
2019-Apr-16 13:00N 47°36' W 052°42'0 0.0 991.2 1.6 1.3
2019-Apr-16 12:00N 47°36' W 052°42'0 0.0 330 / 2992.3 1.1 0.7
2019-Apr-16 11:00N 47°36' W 052°42'0 0.0 992.9 0.8 0.4
2019-Apr-16 10:00N 47°36' W 052°42'0 0.0 310 / 2993.6 0.4-0.0
2019-Apr-16 08:00N 47°36' W 052°42'0 0.0 270 / 3997.3 -0.0-0.7
2019-Apr-16 07:00N 47°36' W 052°42'0 0.0 200 / 1999.6 0.2-0.7
2019-Apr-16 06:00N 47°36' W 052°42'0 0.0 050 / 41000.9 -0.1-0.9
2019-Apr-16 05:00N 47°36' W 052°42'0 0.0 030 / 41003.8 -0.4-1.2
2019-Apr-16 04:00N 47°36' W 052°42'0 0.0 080 / 11005.8 -0.4-1.3
2019-Apr-16 03:00N 47°36' W 052°42'0 0.0 020 / 11007.5 -0.4-1.4
2019-Apr-16 02:00N 47°36' W 052°42'0 0.0 040 / 31008.5 -0.3-1.4
2019-Apr-16 01:00N 47°36' W 052°42'0 0.0 190 / 11010.3 -0.2-1.8
2019-Apr-16 00:00N 47°36' W 052°42'0 0.0 130 / 11012.4 -0.0-2.2
2019-Apr-15 23:00N 47°36' W 052°42'0 0.0 180 / 21013.3 0.4-3.3
2019-Apr-15 22:00N 47°36' W 052°42'0 0.0 160 / 21013.7 0.6-3.5
2019-Apr-15 20:00N 47°36' W 052°42'0 0.0 190 / 21014.4 1.5-5.1
2019-Apr-15 19:00N 47°36' W 052°42'0 0.0 180 / 51015.0 2.5-6.5
2019-Apr-15 18:00N 47°36' W 052°42'0 0.0 180 / 51015.4 2.8-7.0
2019-Apr-15 17:00N 47°36' W 052°42'0 0.0 170 / 41015.4 4.5-8.1
2019-Apr-15 16:00N 47°36' W 052°42'0 0.0 150 / 31015.6 5.0-6.0
2019-Apr-15 15:00N 47°36' W 052°42'0 0.0 120 / 21015.2 5.4-5.1
2019-Apr-15 13:00N 47°36' W 052°42'0 0.0 350 / 31016.5 3.0-2.2
2019-Apr-15 10:00N 47°36' W 052°42'0 0.0 160 / 21015.0 0.9-2.4
2019-Apr-15 09:00N 47°36' W 052°42'0 0.0 170 / 21014.7 -0.6-3.3
2019-Apr-15 08:00N 47°36' W 052°42'0 0.0 1013.5 -0.1-2.9
2019-Apr-15 07:00N 47°36' W 052°42'0 0.0 340 / 11012.9 0.3-2.9
2019-Apr-15 06:00N 47°36' W 052°42'0 0.0 240 / 21012.2 0.7-2.6
2019-Apr-15 05:00N 47°36' W 052°42'0 0.0 340 / 41011.4 1.8-2.5
2019-Apr-15 04:00N 47°36' W 052°42'0 0.0 290 / 21011.1 2.2-2.7
2019-Apr-15 03:00N 47°36' W 052°42'0 0.0 210 / 11010.4 2.6-2.1
2019-Apr-15 01:00N 47°36' W 052°42'0 0.0 280 / 51008.7 2.9-2.3
2019-Apr-15 00:00N 47°36' W 052°42'0 0.0 310 / 41007.2 3.4-1.6
2019-Apr-14 23:00N 47°36' W 052°42'0 0.0 320 / 81005.5 3.5-0.8
2019-Apr-14 22:00N 47°36' W 052°42'0 0.0 340 / 71003.5 5.9 0.1
2019-Apr-14 21:00N 47°36' W 052°42'0 0.0 250 / 31002.1 8.5-1.0
2019-Apr-14 20:00N 47°36' W 052°42'0 0.0 220 / 51001.1 8.6-0.5
2019-Apr-14 19:00N 47°36' W 052°42'0 0.0 210 / 91000.0 9.4 0.2
2019-Apr-14 18:00N 47°36' W 052°42'0 0.0 210 / 9999.2 10.3 1.7
2019-Apr-14 17:00N 47°36' W 052°42'0 0.0 210 / 6999.7 10.0 3.3
2019-Apr-14 16:00N 47°36' W 052°42'0 0.0 220 / 7999.9 8.1 3.2
2019-Apr-14 15:00N 47°36' W 052°42'0 0.0 220 / 9999.4 7.1 3.1
2019-Apr-14 13:00N 47°36' W 052°42'0 0.0 210 / 71000.3 6.0 4.2
2019-Apr-14 12:00N 47°36' W 052°42'0 0.0 210 / 51000.4 7.0 4.6
2019-Apr-14 11:00N 47°36' W 052°42'0 0.0 200 / 61001.1 5.5 3.4
2019-Apr-14 10:00N 47°36' W 052°42'0 0.0 200 / 61002.4 4.2 2.8
2019-Apr-14 09:00N 47°36' W 052°42'0 0.0 190 / 31003.0 4.0 2.4
2019-Apr-14 08:00N 47°36' W 052°42'0 0.0 200 / 31003.0 3.6 1.3
2019-Apr-14 07:00N 47°36' W 052°42'0 0.0 240 / 11004.0 3.1 0.8
2019-Apr-14 06:00N 47°36' W 052°42'0 0.0 200 / 61005.4 2.6 0.6
2019-Apr-14 05:00N 47°36' W 052°42'0 0.0 200 / 51007.3 2.4-0.1
2019-Apr-14 04:00N 47°36' W 052°42'0 0.0 200 / 61008.6 2.3-0.6
2019-Apr-14 03:00N 47°36' W 052°42'0 0.0 200 / 71009.9 2.5-1.3
2019-Apr-14 02:00N 47°36' W 052°42'0 0.0 200 / 81011.3 2.7-3.4
2019-Apr-14 01:00N 47°36' W 052°42'0 0.0 200 / 51011.8 3.3-7.0
2019-Apr-14 00:00N 47°36' W 052°42'0 0.0 200 / 61013.0 4.1-6.9
2019-Apr-13 23:00N 47°36' W 052°42'0 0.0 210 / 91014.5 4.5-6.8
2019-Apr-13 22:00N 47°36' W 052°42'0 0.0 210 / 71014.3 5.2-4.9
2019-Apr-13 21:00N 47°36' W 052°42'0 0.0 210 / 81015.0 5.7-7.1
2019-Apr-13 20:00N 47°36' W 052°42'0 0.0 210 / 91015.3 6.8-11.4
2019-Apr-13 19:00N 47°36' W 052°42'0 0.0 210 / 61016.3 7.5-8.0
2019-Apr-13 18:00N 47°36' W 052°42'0 0.0 210 / 71016.9 7.6-8.5
2019-Apr-13 17:00N 47°36' W 052°42'0 0.0 210 / 51017.7 7.5-9.2
2019-Apr-13 16:00N 47°36' W 052°42'0 0.0 210 / 51018.1 6.8-9.4
2019-Apr-13 15:00N 47°36' W 052°42'0 0.0 220 / 51018.7 5.8-9.2
2019-Apr-13 14:00N 47°36' W 052°42'0 0.0 230 / 41019.3 5.2-8.2
2019-Apr-13 13:00N 47°36' W 052°42'0 0.0 200 / 91019.9 2.3-8.2
2019-Apr-13 12:00N 47°36' W 052°42'0 0.0 190 / 101020.1 0.8-7.3
2019-Apr-13 11:00N 47°36' W 052°42'0 0.0 190 / 81019.9 -0.0-6.5
2019-Apr-13 10:00N 47°36' W 052°42'0 0.0 170 / 51019.3 -0.6-6.1
2019-Apr-13 09:00N 47°36' W 052°42'0 0.0 180 / 41018.1 -2.0-6.9
2019-Apr-13 08:00N 47°36' W 052°42'0 0.0 170 / 51018.2 -1.6-6.7
2019-Apr-13 06:00N 47°36' W 052°42'0 0.0 160 / 41017.4 -0.9-6.3
2019-Apr-13 05:00N 47°36' W 052°42'0 0.0 180 / 51017.4 -1.2-7.2
2019-Apr-13 04:00N 47°36' W 052°42'0 0.0 170 / 41017.3 -1.6-6.1
2019-Apr-13 03:00N 47°36' W 052°42'0 0.0 170 / 31017.0 -1.6-5.3
2019-Apr-13 02:00N 47°36' W 052°42'0 0.0 170 / 41017.0 -1.2-5.5
2019-Apr-13 01:00N 47°36' W 052°42'0 0.0 170 / 21017.2 -0.9-5.1
2019-Apr-13 00:00N 47°36' W 052°42'0 0.0 010 / 31016.3 -1.3-5.0
2019-Apr-12 23:00N 47°36' W 052°42'0 0.0 360 / 51015.4 -0.9-4.6
2019-Apr-12 22:00N 47°36' W 052°42'0 0.0 010 / 61014.5 0.4-4.8
2019-Apr-12 21:00N 47°36' W 052°42'0 0.0 010 / 71013.9 2.2-5.0
2019-Apr-12 20:00N 47°36' W 052°42'0 0.0 360 / 91013.4 2.0-4.7
2019-Apr-12 19:00N 47°36' W 052°42'0 0.0 350 / 41012.6 2.4-3.5
2019-Apr-12 18:00N 47°36' W 052°42'0 0.0 210 / 91012.4 5.1-4.3
2019-Apr-12 17:00N 47°36' W 052°42'0 0.0 210 / 101012.5 4.8-3.9
2019-Apr-12 16:00N 47°36' W 052°42'0 0.0 210 / 81012.9 4.0-3.9
2019-Apr-12 15:00N 47°36' W 052°42'0 0.0 210 / 71013.3 3.6-3.7
2019-Apr-12 14:00N 47°36' W 052°42'0 0.0 220 / 71013.7 3.3-3.5
2019-Apr-12 13:00N 47°36' W 052°42'0 0.0 220 / 81013.8 2.1-3.6
2019-Apr-12 12:00N 47°36' W 052°42'0 0.0 210 / 51014.0 1.3-3.1
2019-Apr-12 11:00N 47°36' W 052°42'   220 / 51014.1 0.6-2.9

Dump ship's entire track history